Time,TemperatureF,DewpointF,PressureIn,WindDirection,WindDirectionDegrees,WindSpeedMPH,WindSpeedGustMPH,Humidity,HourlyPrecipIn,Conditions,Clouds,dailyrainin,SoftwareType,DateUTC
2013-02-09 00:01:00,25.0,22.2,28.29,WSW,248,0.0,0.0,89,0.00,,---,0.00,VWS V14.01,2013-02-09 08:01:00,
2013-02-09 00:06:00,25.0,22.2,28.29,WSW,248,0.0,0.0,89,0.00,,---,0.00,VWS V14.01,2013-02-09 08:06:00,
2013-02-09 00:11:00,25.0,22.2,28.29,WSW,248,0.0,0.0,89,0.00,,---,0.00,VWS V14.01,2013-02-09 08:11:00,
2013-02-09 00:16:00,24.8,22.0,28.26,WSW,248,0.0,0.0,89,0.00,,---,0.00,VWS V14.01,2013-02-09 08:16:00,
2013-02-09 00:21:00,24.8,22.0,28.26,WSW,248,0.0,0.0,89,0.00,,---,0.00,VWS V14.01,2013-02-09 08:21:00,
2013-02-09 00:26:00,24.8,22.0,28.26,WSW,248,0.0,0.0,89,0.00,,---,0.00,VWS V14.01,2013-02-09 08:26:00,
2013-02-09 00:31:00,24.6,21.9,28.26,WSW,248,0.0,0.0,89,0.00,,---,0.00,VWS V14.01,2013-02-09 08:31:00,
2013-02-09 00:36:00,24.6,21.9,28.26,WSW,248,0.0,0.0,89,0.00,,---,0.00,VWS V14.01,2013-02-09 08:36:00,
2013-02-09 00:41:00,24.6,21.9,28.26,WSW,248,0.0,0.0,89,0.00,,---,0.00,VWS V14.01,2013-02-09 08:41:00,
2013-02-09 00:46:00,24.4,21.7,28.26,WSW,248,0.0,0.0,89,0.00,,---,0.00,VWS V14.01,2013-02-09 08:46:00,
2013-02-09 00:51:00,24.6,22.1,28.26,WSW,248,0.0,0.0,90,0.00,,---,0.00,VWS V14.01,2013-02-09 08:51:00,
2013-02-09 00:57:00,24.3,21.5,28.26,WSW,248,0.0,0.0,89,0.00,,---,0.00,VWS V14.01,2013-02-09 08:57:00,
2013-02-09 01:02:00,24.1,21.3,28.26,WSW,248,0.0,0.0,89,0.00,,---,0.00,VWS V14.01,2013-02-09 09:02:00,
2013-02-09 01:07:00,24.1,21.3,28.26,WSW,248,0.0,0.0,89,0.00,,---,0.00,VWS V14.01,2013-02-09 09:07:00,
2013-02-09 01:12:00,24.1,21.3,28.26,WSW,248,0.0,0.0,89,0.00,,---,0.00,VWS V14.01,2013-02-09 09:12:00,
2013-02-09 01:17:00,23.7,21.0,28.26,WSW,248,0.0,0.0,89,0.00,,---,0.00,VWS V14.01,2013-02-09 09:17:00,
2013-02-09 01:22:00,23.5,20.8,28.26,WSW,248,0.0,0.0,89,0.00,,---,0.00,VWS V14.01,2013-02-09 09:22:00,
2013-02-09 01:27:00,23.5,20.5,28.26,WSW,248,0.0,0.0,88,0.00,,---,0.00,VWS V14.01,2013-02-09 09:27:00,
2013-02-09 01:32:00,23.4,20.6,28.26,WSW,248,0.0,0.0,89,0.00,,---,0.00,VWS V14.01,2013-02-09 09:32:00,
2013-02-09 01:37:00,23.4,20.6,28.26,WSW,248,0.0,0.0,89,0.00,,---,0.00,VWS V14.01,2013-02-09 09:37:00,
2013-02-09 01:42:00,23.4,20.6,28.26,WSW,248,0.0,0.0,89,0.00,,---,0.00,VWS V14.01,2013-02-09 09:42:00,
2013-02-09 01:47:00,23.0,20.2,28.26,WSW,248,0.0,0.0,89,0.00,,---,0.00,VWS V14.01,2013-02-09 09:47:00,
2013-02-09 01:52:00,22.8,20.1,28.26,WSW,248,0.0,0.0,89,0.00,,---,0.00,VWS V14.01,2013-02-09 09:52:00,
2013-02-09 01:57:00,22.8,20.1,28.26,WSW,248,0.0,0.0,89,0.00,,---,0.00,VWS V14.01,2013-02-09 09:57:00,
2013-02-09 02:02:00,23.0,20.2,28.26,WSW,248,0.0,0.0,89,0.00,,---,0.00,VWS V14.01,2013-02-09 10:02:00,
2013-02-09 02:07:00,23.4,20.9,28.26,WSW,248,0.0,0.0,90,0.00,,---,0.00,VWS V14.01,2013-02-09 10:07:00,
2013-02-09 02:12:00,23.4,20.9,28.26,WSW,248,0.0,0.0,90,0.00,,---,0.00,VWS V14.01,2013-02-09 10:12:00,
2013-02-09 02:17:00,22.8,20.3,28.26,WSW,248,0.0,0.0,90,0.00,,---,0.00,VWS V14.01,2013-02-09 10:17:00,
2013-02-09 02:22:00,22.6,19.9,28.26,WSW,248,0.0,0.0,89,0.00,,---,0.00,VWS V14.01,2013-02-09 10:22:00,
2013-02-09 02:27:00,22.6,19.9,28.26,WSW,248,0.0,0.0,89,0.00,,---,0.00,VWS V14.01,2013-02-09 10:27:00,
2013-02-09 02:32:00,22.5,19.7,28.26,WSW,248,0.0,0.0,89,0.00,,---,0.00,VWS V14.01,2013-02-09 10:32:00,
2013-02-09 02:37:00,22.8,20.3,28.26,WSW,248,0.0,0.0,90,0.00,,---,0.00,VWS V14.01,2013-02-09 10:37:00,
2013-02-09 02:42:00,22.5,20.0,28.26,WSW,248,0.0,0.0,90,0.00,,---,0.00,VWS V14.01,2013-02-09 10:42:00,
2013-02-09 02:47:00,22.3,19.8,28.26,WSW,248,0.0,0.0,90,0.00,,---,0.00,VWS V14.01,2013-02-09 10:47:00,
2013-02-09 02:52:00,22.3,19.5,28.26,WSW,248,0.0,0.0,89,0.00,,---,0.00,VWS V14.01,2013-02-09 10:52:00,
2013-02-09 02:57:00,22.1,19.4,28.26,WSW,248,0.0,0.0,89,0.00,,---,0.00,VWS V14.01,2013-02-09 10:57:00,
2013-02-09 03:02:00,22.1,19.4,28.26,WSW,248,0.0,0.0,89,0.00,,---,0.00,VWS V14.01,2013-02-09 11:02:00,
2013-02-09 03:07:00,21.9,19.2,28.26,WSW,248,0.0,0.0,89,0.00,,---,0.00,VWS V14.01,2013-02-09 11:07:00,
2013-02-09 03:12:00,21.9,19.2,28.26,WSW,248,0.0,0.0,89,0.00,,---,0.00,VWS V14.01,2013-02-09 11:12:00,
2013-02-09 03:17:00,21.9,19.2,28.26,WSW,248,0.0,0.0,89,0.00,,---,0.00,VWS V14.01,2013-02-09 11:17:00,
2013-02-09 03:22:00,21.7,19.0,28.26,WSW,248,0.0,0.0,89,0.00,,---,0.00,VWS V14.01,2013-02-09 11:22:00,
2013-02-09 03:27:00,21.7,19.0,28.26,WSW,248,0.0,0.0,89,0.00,,---,0.00,VWS V14.01,2013-02-09 11:27:00,
2013-02-09 03:32:00,21.9,19.2,28.26,WSW,248,0.0,0.0,89,0.00,,---,0.00,VWS V14.01,2013-02-09 11:32:00,
2013-02-09 03:37:00,21.7,19.3,28.26,WSW,248,0.0,0.0,90,0.00,,---,0.00,VWS V14.01,2013-02-09 11:37:00,
2013-02-09 03:42:00,21.6,18.8,28.26,WSW,248,0.0,0.0,89,0.00,,---,0.00,VWS V14.01,2013-02-09 11:42:00,
2013-02-09 03:47:00,21.2,18.5,28.26,WSW,248,0.0,0.0,89,0.00,,---,0.00,VWS V14.01,2013-02-09 11:47:00,
2013-02-09 03:52:00,21.7,19.3,28.26,WSW,248,0.0,0.0,90,0.00,,---,0.00,VWS V14.01,2013-02-09 11:52:00,
2013-02-09 03:57:00,21.7,19.3,28.26,WSW,248,0.0,0.0,90,0.00,,---,0.00,VWS V14.01,2013-02-09 11:57:00,
2013-02-09 04:02:00,21.4,18.9,28.26,WSW,248,0.0,0.0,90,0.00,,---,0.00,VWS V14.01,2013-02-09 12:02:00,
2013-02-09 04:07:00,21.6,19.1,28.26,WSW,248,0.0,0.0,90,0.00,,---,0.00,VWS V14.01,2013-02-09 12:07:00,
2013-02-09 04:12:00,21.6,19.1,28.26,WSW,248,0.0,0.0,90,0.00,,---,0.00,VWS V14.01,2013-02-09 12:12:00,
2013-02-09 04:17:00,21.2,18.7,28.29,WSW,248,0.0,0.0,90,0.00,,---,0.00,VWS V14.01,2013-02-09 12:17:00,
2013-02-09 04:22:00,21.2,18.7,28.29,WSW,248,0.0,0.0,90,0.00,,---,0.00,VWS V14.01,2013-02-09 12:22:00,
2013-02-09 04:27:00,21.4,18.6,28.29,WSW,248,0.0,0.0,89,0.00,,---,0.00,VWS V14.01,2013-02-09 12:27:00,
2013-02-09 04:32:00,21.2,18.7,28.26,WSW,248,0.0,0.0,90,0.00,,---,0.00,VWS V14.01,2013-02-09 12:32:00,
2013-02-09 04:38:00,21.2,18.7,28.26,WSW,248,0.0,0.0,90,0.00,,---,0.00,VWS V14.01,2013-02-09 12:38:00,
2013-02-09 04:43:00,21.0,18.5,28.26,WSW,248,0.0,0.0,90,0.00,,---,0.00,VWS V14.01,2013-02-09 12:43:00,
2013-02-09 04:48:00,21.0,18.3,28.26,WSW,248,0.0,0.0,89,0.00,,---,0.00,VWS V14.01,2013-02-09 12:48:00,
2013-02-09 04:53:00,21.0,18.3,28.26,WSW,248,0.0,0.0,89,0.00,,---,0.00,VWS V14.01,2013-02-09 12:53:00,
2013-02-09 04:58:00,21.0,18.5,28.26,WSW,248,0.0,0.0,90,0.00,,---,0.00,VWS V14.01,2013-02-09 12:58:00,
2013-02-09 05:04:00,21.2,18.7,28.26,WSW,248,0.0,0.0,90,0.00,,---,0.00,VWS V14.01,2013-02-09 13:04:00,
2013-02-09 05:09:00,21.2,18.7,28.26,WSW,248,0.0,0.0,90,0.00,,---,0.00,VWS V14.01,2013-02-09 13:09:00,
2013-02-09 05:14:00,21.2,18.7,28.29,WSW,248,0.0,0.0,90,0.00,,---,0.00,VWS V14.01,2013-02-09 13:14:00,
2013-02-09 05:19:00,21.0,18.5,28.29,WSW,248,0.0,0.0,90,0.00,,---,0.00,VWS V14.01,2013-02-09 13:19:00,
2013-02-09 05:24:00,21.2,18.7,28.29,WSW,248,0.0,0.0,90,0.00,,---,0.00,VWS V14.01,2013-02-09 13:24:00,
2013-02-09 05:29:00,21.2,18.7,28.29,WSW,248,0.0,0.0,90,0.00,,---,0.00,VWS V14.01,2013-02-09 13:29:00,
2013-02-09 05:34:00,21.2,18.7,28.29,WSW,248,0.0,0.0,90,0.00,,---,0.00,VWS V14.01,2013-02-09 13:34:00,
2013-02-09 05:39:00,21.4,18.9,28.29,WSW,248,0.0,0.0,90,0.00,,---,0.00,VWS V14.01,2013-02-09 13:39:00,
2013-02-09 05:44:00,21.4,18.9,28.26,WSW,248,0.0,0.0,90,0.00,,---,0.00,VWS V14.01,2013-02-09 13:44:00,
2013-02-09 05:49:00,21.6,19.1,28.26,WSW,248,0.0,0.0,90,0.00,,---,0.00,VWS V14.01,2013-02-09 13:49:00,
2013-02-09 05:54:00,21.4,18.9,28.26,WSW,248,0.0,0.0,90,0.00,,---,0.00,VWS V14.01,2013-02-09 13:54:00,
2013-02-09 05:59:00,21.4,18.9,28.26,WSW,248,0.0,0.0,90,0.00,,---,0.00,VWS V14.01,2013-02-09 13:59:00,
2013-02-09 06:05:00,21.4,18.9,28.26,WSW,248,0.0,0.0,90,0.00,,---,0.00,VWS V14.01,2013-02-09 14:05:00,
2013-02-09 06:10:00,21.2,18.7,28.26,WSW,248,0.0,0.0,90,0.00,,---,0.00,VWS V14.01,2013-02-09 14:10:00,
2013-02-09 06:15:00,21.6,19.1,28.26,WSW,248,0.0,0.0,90,0.00,,---,0.00,VWS V14.01,2013-02-09 14:15:00,
2013-02-09 06:20:00,21.6,19.1,28.26,WSW,248,0.0,0.0,90,0.00,,---,0.00,VWS V14.01,2013-02-09 14:20:00,
2013-02-09 06:25:00,21.6,19.1,28.26,WSW,248,0.0,0.0,90,0.00,,---,0.00,VWS V14.01,2013-02-09 14:25:00,
2013-02-09 06:30:00,21.2,18.7,28.29,WSW,248,0.0,0.0,90,0.00,,---,0.00,VWS V14.01,2013-02-09 14:30:00,
2013-02-09 06:35:00,21.6,19.1,28.29,WSW,248,0.0,0.0,90,0.00,,---,0.00,VWS V14.01,2013-02-09 14:35:00,
2013-02-09 06:40:00,21.7,19.3,28.29,WSW,248,0.0,0.0,90,0.00,,---,0.00,VWS V14.01,2013-02-09 14:40:00,
2013-02-09 06:45:00,21.6,19.1,28.26,WSW,248,0.0,0.0,90,0.00,,---,0.00,VWS V14.01,2013-02-09 14:45:00,
2013-02-09 06:50:00,21.7,19.3,28.26,WSW,248,0.0,0.0,90,0.00,,---,0.00,VWS V14.01,2013-02-09 14:50:00,
2013-02-09 06:55:00,21.9,19.7,28.26,WSW,248,0.0,0.0,91,0.00,,---,0.00,VWS V14.01,2013-02-09 14:55:00,
2013-02-09 07:00:00,21.9,19.7,28.26,WSW,248,0.0,0.0,91,0.00,,---,0.00,VWS V14.01,2013-02-09 15:00:00,
2013-02-09 07:05:00,21.9,19.4,28.26,WSW,248,0.0,0.0,90,0.00,,---,0.00,VWS V14.01,2013-02-09 15:05:00,
2013-02-09 07:10:00,21.9,19.4,28.26,WSW,248,0.0,0.0,90,0.00,,---,0.00,VWS V14.01,2013-02-09 15:10:00,
2013-02-09 07:15:00,22.3,20.1,28.26,WSW,248,0.0,0.0,91,0.00,,---,0.00,VWS V14.01,2013-02-09 15:15:00,
2013-02-09 07:20:00,22.5,20.2,28.26,WSW,248,0.0,0.0,91,0.00,,---,0.00,VWS V14.01,2013-02-09 15:20:00,
2013-02-09 07:25:00,22.3,20.1,28.26,WSW,248,0.0,0.0,91,0.00,,---,0.00,VWS V14.01,2013-02-09 15:25:00,
2013-02-09 07:30:00,22.3,20.1,28.26,WSW,248,0.0,0.0,91,0.00,,---,0.00,VWS V14.01,2013-02-09 15:30:00,
2013-02-09 07:35:00,22.5,20.2,28.26,WSW,248,0.0,0.0,91,0.00,,---,0.00,VWS V14.01,2013-02-09 15:35:00,
2013-02-09 07:40:00,22.6,20.4,28.26,WSW,248,0.0,0.0,91,0.00,,---,0.00,VWS V14.01,2013-02-09 15:40:00,
2013-02-09 07:45:00,22.8,20.6,28.26,WSW,248,0.0,0.0,91,0.00,,---,0.00,VWS V14.01,2013-02-09 15:45:00,
2013-02-09 07:50:00,23.0,20.8,28.26,WSW,248,0.0,0.0,91,0.00,,---,0.00,VWS V14.01,2013-02-09 15:50:00,
2013-02-09 07:55:00,23.0,20.8,28.26,WSW,248,0.0,0.0,91,0.00,,---,0.00,VWS V14.01,2013-02-09 15:55:00,
2013-02-09 08:00:00,23.2,20.7,28.26,WSW,248,0.0,0.0,90,0.00,,---,0.00,VWS V14.01,2013-02-09 16:00:00,
2013-02-09 08:05:00,23.5,21.3,28.26,WSW,248,0.0,0.0,91,0.00,,---,0.00,VWS V14.01,2013-02-09 16:05:00,
2013-02-09 08:10:00,23.7,21.5,28.26,WSW,248,0.0,0.0,91,0.00,,---,0.00,VWS V14.01,2013-02-09 16:10:00,
2013-02-09 08:15:00,23.5,21.3,28.26,WSW,248,0.0,0.0,91,0.00,,---,0.00,VWS V14.01,2013-02-09 16:15:00,
2013-02-09 08:20:00,23.9,21.7,28.26,WSW,248,0.0,0.0,91,0.00,,---,0.00,VWS V14.01,2013-02-09 16:20:00,
2013-02-09 08:25:00,24.1,21.8,28.26,WSW,248,0.0,0.0,91,0.00,,---,0.00,VWS V14.01,2013-02-09 16:25:00,
2013-02-09 08:30:00,23.9,21.7,28.26,WSW,248,0.0,0.0,91,0.00,,---,0.00,VWS V14.01,2013-02-09 16:30:00,
2013-02-09 08:35:00,23.9,21.4,28.26,WSW,248,0.0,0.0,90,0.00,,---,0.00,VWS V14.01,2013-02-09 16:35:00,
2013-02-09 08:40:00,23.9,21.4,28.26,WSW,248,0.0,0.0,90,0.00,,---,0.00,VWS V14.01,2013-02-09 16:40:00,
2013-02-09 08:45:00,23.9,21.4,28.26,WSW,248,0.0,0.0,90,0.00,,---,0.00,VWS V14.01,2013-02-09 16:45:00,
2013-02-09 08:50:00,24.1,21.6,28.26,WSW,248,0.0,0.0,90,0.00,,---,0.00,VWS V14.01,2013-02-09 16:50:00,
2013-02-09 08:55:00,24.3,21.8,28.26,WSW,248,0.0,0.0,90,0.00,,---,0.00,VWS V14.01,2013-02-09 16:55:00,
2013-02-09 09:00:00,24.4,22.2,28.26,WSW,248,0.0,0.0,91,0.00,,---,0.00,VWS V14.01,2013-02-09 17:00:00,
2013-02-09 09:05:00,24.6,22.4,28.26,WSW,248,0.0,0.0,91,0.00,,---,0.00,VWS V14.01,2013-02-09 17:05:00,
2013-02-09 09:10:00,25.0,22.7,28.26,WSW,248,0.0,0.0,91,0.00,,---,0.00,VWS V14.01,2013-02-09 17:10:00,
2013-02-09 09:15:00,25.3,23.1,28.26,WSW,248,0.0,0.0,91,0.00,,---,0.00,VWS V14.01,2013-02-09 17:15:00,
2013-02-09 09:20:00,25.5,23.3,28.26,WSW,248,0.0,0.0,91,0.00,,---,0.00,VWS V14.01,2013-02-09 17:20:00,
2013-02-09 09:25:00,26.1,23.8,28.26,WSW,248,0.0,0.0,91,0.00,,---,0.00,VWS V14.01,2013-02-09 17:25:00,
2013-02-09 09:30:00,26.4,24.1,28.26,WSW,248,0.0,0.0,91,0.00,,---,0.00,VWS V14.01,2013-02-09 17:30:00,
2013-02-09 09:35:00,26.8,24.5,28.26,WSW,248,0.0,0.0,91,0.00,,---,0.00,VWS V14.01,2013-02-09 17:35:00,
2013-02-09 09:40:00,27.0,24.7,28.26,WSW,248,0.0,0.0,91,0.00,,---,0.00,VWS V14.01,2013-02-09 17:40:00,
2013-02-09 09:45:00,27.5,25.5,28.26,WSW,248,0.0,0.0,92,0.00,,---,0.00,VWS V14.01,2013-02-09 17:45:00,
2013-02-09 09:50:00,28.0,26.0,28.26,WSW,248,0.0,0.0,92,0.00,,---,0.00,VWS V14.01,2013-02-09 17:50:00,
2013-02-09 09:55:00,28.8,26.7,28.26,WSW,248,0.0,0.0,92,0.00,,---,0.00,VWS V14.01,2013-02-09 17:55:00,
2013-02-09 10:00:00,30.0,28.2,28.26,WSW,248,0.0,0.0,93,0.00,,---,0.00,VWS V14.01,2013-02-09 18:00:00,
2013-02-09 10:05:00,32.5,31.0,28.26,WSW,248,0.0,0.0,94,0.00,,---,0.00,VWS V14.01,2013-02-09 18:05:00,
2013-02-09 10:10:00,34.3,33.1,28.26,WSW,248,0.0,0.0,95,0.00,,---,0.00,VWS V14.01,2013-02-09 18:10:00,
2013-02-09 10:15:00,36.1,34.6,28.26,WSW,248,0.0,0.0,94,0.00,,---,0.00,VWS V14.01,2013-02-09 18:15:00,
2013-02-09 10:20:00,37.6,35.5,28.26,WSW,248,0.0,0.0,92,0.00,,---,0.00,VWS V14.01,2013-02-09 18:20:00,
2013-02-09 10:25:00,36.3,32.5,28.26,NNE,22,0.0,0.0,86,0.00,,---,0.00,VWS V14.01,2013-02-09 18:25:00,
2013-02-09 10:30:00,35.4,31.1,28.23,SSW,202,0.0,0.0,84,0.00,,---,0.00,VWS V14.01,2013-02-09 18:30:00,
2013-02-09 10:35:00,35.8,30.8,28.23,SSW,202,0.0,0.0,82,0.00,,---,0.00,VWS V14.01,2013-02-09 18:35:00,
2013-02-09 10:40:00,38.1,34.0,28.23,SSW,202,0.0,0.0,85,0.00,,---,0.00,VWS V14.01,2013-02-09 18:40:00,
2013-02-09 10:46:00,38.8,32.9,28.23,SE,135,0.0,0.0,79,0.00,,---,0.00,VWS V14.01,2013-02-09 18:46:00,
2013-02-09 10:51:00,38.8,31.9,28.23,SSW,202,0.0,0.0,76,0.00,,---,0.00,VWS V14.01,2013-02-09 18:51:00,
2013-02-09 10:55:00,39.0,31.5,28.23,NE,45,0.0,0.0,74,0.00,,---,0.00,VWS V14.01,2013-02-09 18:55:00,
2013-02-09 11:00:00,39.6,31.6,28.23,SSW,202,0.0,0.0,73,0.00,,---,0.00,VWS V14.01,2013-02-09 19:00:00,
2013-02-09 11:05:00,39.0,29.7,28.23,North,0,0.0,0.0,69,0.00,,---,0.00,VWS V14.01,2013-02-09 19:05:00,
2013-02-09 11:11:00,39.4,30.1,28.23,SSW,202,0.0,0.0,69,0.00,,---,0.00,VWS V14.01,2013-02-09 19:11:00,
2013-02-09 11:15:00,38.8,28.8,28.23,SW,225,0.0,0.0,67,0.00,,---,0.00,VWS V14.01,2013-02-09 19:15:00,
2013-02-09 11:20:00,38.8,29.5,28.23,SSW,202,0.0,0.0,69,0.00,,---,0.00,VWS V14.01,2013-02-09 19:20:00,
2013-02-09 11:26:00,38.7,29.4,28.23,WNW,292,0.0,0.0,69,0.00,,---,0.00,VWS V14.01,2013-02-09 19:26:00,
2013-02-09 11:31:00,38.7,28.7,28.23,South,180,0.0,0.0,67,0.00,,---,0.00,VWS V14.01,2013-02-09 19:31:00,
2013-02-09 11:36:00,38.8,29.2,28.23,SSW,202,0.0,0.0,68,0.00,,---,0.00,VWS V14.01,2013-02-09 19:36:00,
2013-02-09 11:41:00,40.1,30.0,28.23,SSW,202,0.0,0.0,67,0.00,,---,0.00,VWS V14.01,2013-02-09 19:41:00,
2013-02-09 11:46:00,42.3,31.4,28.23,WSW,248,0.0,0.9,65,0.00,,---,0.00,VWS V14.01,2013-02-09 19:46:00,
2013-02-09 11:51:00,44.2,33.6,28.23,WNW,292,0.0,1.6,66,0.00,,---,0.00,VWS V14.01,2013-02-09 19:51:00,
2013-02-09 11:56:00,46.0,32.5,28.23,WNW,292,0.0,2.0,59,0.00,,---,0.00,VWS V14.01,2013-02-09 19:56:00,
2013-02-09 12:01:00,46.0,31.7,28.23,SW,225,0.0,0.0,57,0.00,,---,0.00,VWS V14.01,2013-02-09 20:01:00,
2013-02-09 12:06:00,45.0,30.7,28.23,SW,225,0.0,2.0,57,0.00,,---,0.00,VWS V14.01,2013-02-09 20:06:00,
2013-02-09 12:11:00,43.3,28.3,28.23,North,0,0.0,0.0,55,0.00,,---,0.00,VWS V14.01,2013-02-09 20:11:00,
2013-02-09 12:16:00,43.2,28.5,28.23,WSW,248,1.6,2.0,56,0.00,,---,0.00,VWS V14.01,2013-02-09 20:16:00,
2013-02-09 12:21:00,42.3,25.4,28.23,WSW,248,1.1,2.5,51,0.00,,---,0.00,VWS V14.01,2013-02-09 20:21:00,
2013-02-09 12:26:00,42.4,27.9,28.23,WSW,248,0.0,1.6,56,0.00,,---,0.00,VWS V14.01,2013-02-09 20:26:00,
2013-02-09 12:31:00,42.4,27.4,28.23,WSW,248,2.7,2.7,55,0.00,,---,0.00,VWS V14.01,2013-02-09 20:31:00,
2013-02-09 12:36:00,42.1,26.2,28.23,WSW,248,2.2,2.2,53,0.00,,---,0.00,VWS V14.01,2013-02-09 20:36:00,
2013-02-09 12:41:00,41.9,27.4,28.23,WSW,248,0.0,1.3,56,0.00,,---,0.00,VWS V14.01,2013-02-09 20:41:00,
2013-02-09 12:46:00,41.4,26.4,28.23,WSW,248,2.7,2.7,55,0.00,,---,0.00,VWS V14.01,2013-02-09 20:46:00,
2013-02-09 12:51:00,41.5,27.5,28.23,SW,225,1.1,1.1,57,0.00,,---,0.00,VWS V14.01,2013-02-09 20:51:00,
2013-02-09 12:56:00,41.9,27.8,28.23,West,270,2.7,2.7,57,0.00,,---,0.00,VWS V14.01,2013-02-09 20:56:00,
2013-02-09 13:01:00,41.5,26.6,28.23,WSW,248,2.7,2.7,55,0.00,,---,0.00,VWS V14.01,2013-02-09 21:01:00,
2013-02-09 13:06:00,40.6,26.2,28.23,WSW,248,1.6,2.2,56,0.00,,---,0.00,VWS V14.01,2013-02-09 21:06:00,
2013-02-09 13:11:00,39.4,26.3,28.23,WSW,248,2.7,2.7,59,0.00,,---,0.00,VWS V14.01,2013-02-09 21:11:00,
2013-02-09 13:16:00,39.4,26.3,28.20,WSW,248,2.9,2.9,59,0.00,,---,0.00,VWS V14.01,2013-02-09 21:16:00,
2013-02-09 13:21:00,40.5,28.1,28.20,WSW,248,2.5,2.5,61,0.00,,---,0.00,VWS V14.01,2013-02-09 21:21:00,
2013-02-09 13:26:00,41.5,28.7,28.20,West,270,2.5,2.5,60,0.00,,---,0.00,VWS V14.01,2013-02-09 21:26:00,
2013-02-09 13:31:00,40.1,26.9,28.23,WSW,248,2.0,2.0,59,0.00,,---,0.00,VWS V14.01,2013-02-09 21:31:00,
2013-02-09 13:36:00,38.8,26.6,28.23,WSW,248,2.9,2.9,61,0.00,,---,0.00,VWS V14.01,2013-02-09 21:36:00,
2013-02-09 13:41:00,38.3,26.4,28.23,WSW,248,2.0,2.5,62,0.00,,---,0.00,VWS V14.01,2013-02-09 21:41:00,
2013-02-09 13:46:00,37.4,26.7,28.20,WSW,248,2.5,2.7,65,0.00,,---,0.00,VWS V14.01,2013-02-09 21:46:00,
2013-02-09 13:51:00,37.2,26.9,28.20,WSW,248,2.0,2.0,66,0.00,,---,0.00,VWS V14.01,2013-02-09 21:51:00,
2013-02-09 13:56:00,36.7,27.1,28.20,WSW,248,2.5,2.5,68,0.00,,---,0.00,VWS V14.01,2013-02-09 21:56:00,
2013-02-09 14:01:00,36.1,27.3,28.20,WSW,248,2.7,2.7,70,0.00,,---,0.00,VWS V14.01,2013-02-09 22:01:00,
2013-02-09 14:06:00,36.3,27.5,28.20,WSW,248,1.6,2.9,70,0.00,,---,0.00,VWS V14.01,2013-02-09 22:06:00,
2013-02-09 14:11:00,36.1,27.3,28.20,WSW,248,2.0,2.0,70,0.00,,---,0.00,VWS V14.01,2013-02-09 22:11:00,
2013-02-09 14:16:00,36.5,28.0,28.20,WSW,248,1.1,1.1,71,0.00,,---,0.00,VWS V14.01,2013-02-09 22:16:00,
2013-02-09 14:21:00,36.9,28.7,28.20,WSW,248,2.0,2.0,72,0.00,,---,0.00,VWS V14.01,2013-02-09 22:21:00,
2013-02-09 14:26:00,37.2,29.0,28.20,WSW,248,0.0,0.0,72,0.00,,---,0.00,VWS V14.01,2013-02-09 22:26:00,
2013-02-09 14:31:00,37.2,28.7,28.20,WSW,248,0.0,0.0,71,0.00,,---,0.00,VWS V14.01,2013-02-09 22:31:00,
2013-02-09 14:36:00,37.2,29.0,28.20,WSW,248,0.0,0.0,72,0.00,,---,0.00,VWS V14.01,2013-02-09 22:36:00,
2013-02-09 14:41:00,37.0,28.9,28.20,WSW,248,0.0,0.0,72,0.00,,---,0.00,VWS V14.01,2013-02-09 22:41:00,
2013-02-09 14:46:00,37.0,28.9,28.23,WSW,248,0.0,0.0,72,0.00,,---,0.00,VWS V14.01,2013-02-09 22:46:00,
2013-02-09 14:51:00,36.9,28.7,28.23,WSW,248,0.0,0.0,72,0.00,,---,0.00,VWS V14.01,2013-02-09 22:51:00,
2013-02-09 14:56:00,36.7,28.5,28.23,WSW,248,0.0,0.0,72,0.00,,---,0.00,VWS V14.01,2013-02-09 22:56:00,
2013-02-09 15:01:00,36.1,28.0,28.23,WSW,248,0.0,0.0,72,0.00,,---,0.00,VWS V14.01,2013-02-09 23:01:00,
2013-02-09 15:06:00,35.6,27.5,28.23,WSW,248,0.0,0.0,72,0.00,,---,0.00,VWS V14.01,2013-02-09 23:06:00,
2013-02-09 15:11:00,35.6,27.5,28.23,WSW,248,0.0,0.0,72,0.00,,---,0.00,VWS V14.01,2013-02-09 23:11:00,
2013-02-09 15:16:00,35.2,27.5,28.23,WSW,248,0.0,0.0,73,0.00,,---,0.00,VWS V14.01,2013-02-09 23:16:00,
2013-02-09 15:21:00,35.1,27.6,28.23,West,270,0.0,0.0,74,0.00,,---,0.00,VWS V14.01,2013-02-09 23:21:00,
2013-02-09 15:26:00,34.9,27.5,28.23,West,270,0.0,0.0,74,0.00,,---,0.00,VWS V14.01,2013-02-09 23:26:00,
2013-02-09 15:31:00,34.5,27.4,28.26,West,270,0.0,0.0,75,0.00,,---,0.00,VWS V14.01,2013-02-09 23:31:00,
2013-02-09 15:36:00,34.5,27.4,28.26,WSW,248,0.0,0.0,75,0.00,,---,0.00,VWS V14.01,2013-02-09 23:36:00,
2013-02-09 15:41:00,34.3,27.2,28.26,ENE,68,0.0,0.0,75,0.00,,---,0.00,VWS V14.01,2013-02-09 23:41:00,
2013-02-09 15:46:00,34.2,27.4,28.23,ENE,68,0.0,0.0,76,0.00,,---,0.00,VWS V14.01,2013-02-09 23:46:00,
2013-02-09 15:51:00,34.0,27.2,28.23,South,180,0.0,0.0,76,0.00,,---,0.00,VWS V14.01,2013-02-09 23:51:00,
2013-02-09 15:56:00,33.8,27.0,28.23,WSW,248,0.0,0.0,76,0.00,,---,0.00,VWS V14.01,2013-02-09 23:56:00,
2013-02-09 16:01:00,33.6,27.2,28.26,SSW,202,0.0,0.0,77,0.00,,---,0.00,VWS V14.01,2013-02-10 00:01:00,
2013-02-09 16:06:00,33.4,27.0,28.26,WSW,248,0.0,0.0,77,0.00,,---,0.00,VWS V14.01,2013-02-10 00:06:00,
2013-02-09 16:11:00,33.3,27.1,28.26,WSW,248,0.0,0.0,78,0.00,,---,0.00,VWS V14.01,2013-02-10 00:11:00,
2013-02-09 16:16:00,33.1,27.0,28.26,SSW,202,0.0,0.0,78,0.00,,---,0.00,VWS V14.01,2013-02-10 00:16:00,
2013-02-09 16:21:00,32.7,26.9,28.26,SSW,202,0.0,0.0,79,0.00,,---,0.00,VWS V14.01,2013-02-10 00:21:00,
2013-02-09 16:27:00,32.7,27.5,28.26,WSW,248,0.0,0.0,81,0.00,,---,0.00,VWS V14.01,2013-02-10 00:27:00,
2013-02-09 16:32:00,32.2,26.4,28.26,NW,315,0.0,0.0,79,0.00,,---,0.00,VWS V14.01,2013-02-10 00:32:00,
2013-02-09 16:37:00,32.0,26.2,28.26,SSW,202,0.0,0.0,79,0.00,,---,0.00,VWS V14.01,2013-02-10 00:37:00,
2013-02-09 16:42:00,31.6,26.2,28.26,WSW,248,0.0,0.0,80,0.00,,---,0.00,VWS V14.01,2013-02-10 00:42:00,
2013-02-09 16:47:00,31.5,26.0,28.29,ESE,112,0.0,0.0,80,0.00,,---,0.00,VWS V14.01,2013-02-10 00:47:00,
2013-02-09 16:52:00,30.9,25.5,28.29,WSW,248,0.0,0.0,80,0.00,,---,0.00,VWS V14.01,2013-02-10 00:52:00,
2013-02-09 16:57:00,30.7,25.6,28.29,WNW,292,0.0,0.0,81,0.00,,---,0.00,VWS V14.01,2013-02-10 00:57:00,
2013-02-09 17:02:00,30.6,25.4,28.26,ENE,68,0.0,0.0,81,0.00,,---,0.00,VWS V14.01,2013-02-10 01:02:00,
2013-02-09 17:07:00,30.2,25.1,28.26,ENE,68,0.0,0.0,81,0.00,,---,0.00,VWS V14.01,2013-02-10 01:07:00,
2013-02-09 17:12:00,29.7,24.9,28.26,ENE,68,0.0,0.0,82,0.00,,---,0.00,VWS V14.01,2013-02-10 01:12:00,
2013-02-09 17:17:00,29.5,24.7,28.26,ENE,68,0.0,0.0,82,0.00,,---,0.00,VWS V14.01,2013-02-10 01:17:00,
2013-02-09 17:22:00,29.5,24.7,28.26,ENE,68,0.0,0.0,82,0.00,,---,0.00,VWS V14.01,2013-02-10 01:22:00,
2013-02-09 17:27:00,28.9,24.4,28.26,SW,225,0.0,0.0,83,0.00,,---,0.00,VWS V14.01,2013-02-10 01:27:00,
2013-02-09 17:32:00,28.6,24.1,28.29,SW,225,0.0,0.0,83,0.00,,---,0.00,VWS V14.01,2013-02-10 01:32:00,
2013-02-09 17:37:00,28.2,24.0,28.29,SW,225,0.0,0.0,84,0.00,,---,0.00,VWS V14.01,2013-02-10 01:37:00,
2013-02-09 17:42:00,27.9,23.7,28.29,SW,225,0.0,0.0,84,0.00,,---,0.00,VWS V14.01,2013-02-10 01:42:00,
2013-02-09 17:47:00,27.9,24.0,28.29,SW,225,0.0,0.0,85,0.00,,---,0.00,VWS V14.01,2013-02-10 01:47:00,
2013-02-09 17:52:00,27.5,23.6,28.29,SW,225,0.0,0.0,85,0.00,,---,0.00,VWS V14.01,2013-02-10 01:52:00,
2013-02-09 17:57:00,27.3,23.4,28.29,SW,225,0.0,0.0,85,0.00,,---,0.00,VWS V14.01,2013-02-10 01:57:00,
2013-02-09 18:02:00,27.3,23.4,28.29,SSW,202,0.0,0.0,85,0.00,,---,0.00,VWS V14.01,2013-02-10 02:02:00,
2013-02-09 18:07:00,27.9,24.5,28.29,SW,225,0.0,0.0,87,0.00,,---,0.00,VWS V14.01,2013-02-10 02:07:00,
2013-02-09 18:12:00,27.3,24.0,28.29,SW,225,0.0,0.0,87,0.00,,---,0.00,VWS V14.01,2013-02-10 02:12:00,
2013-02-09 18:17:00,27.0,23.3,28.29,NE,45,0.0,0.0,86,0.00,,---,0.00,VWS V14.01,2013-02-10 02:17:00,
2013-02-09 18:22:00,27.0,23.3,28.29,WSW,248,0.0,0.0,86,0.00,,---,0.00,VWS V14.01,2013-02-10 02:22:00,
2013-02-09 18:27:00,27.0,23.6,28.29,West,270,0.0,0.0,87,0.00,,---,0.00,VWS V14.01,2013-02-10 02:27:00,
2013-02-09 18:32:00,26.8,23.4,28.29,West,270,0.0,0.0,87,0.00,,---,0.00,VWS V14.01,2013-02-10 02:32:00,
2013-02-09 18:37:00,26.8,23.7,28.29,WSW,248,0.0,0.0,88,0.00,,---,0.00,VWS V14.01,2013-02-10 02:37:00,
2013-02-09 18:42:00,26.6,23.5,28.29,WSW,248,0.0,0.0,88,0.00,,---,0.00,VWS V14.01,2013-02-10 02:42:00,
2013-02-09 18:47:00,26.4,23.4,28.32,WSW,248,0.0,0.0,88,0.00,,---,0.00,VWS V14.01,2013-02-10 02:47:00,
2013-02-09 18:52:00,26.4,23.4,28.32,WSW,248,0.0,0.0,88,0.00,,---,0.00,VWS V14.01,2013-02-10 02:52:00,
2013-02-09 18:57:00,26.4,23.4,28.32,WSW,248,0.0,0.0,88,0.00,,---,0.00,VWS V14.01,2013-02-10 02:57:00,
2013-02-09 19:02:00,26.1,23.0,28.32,WSW,248,0.0,0.0,88,0.00,,---,0.00,VWS V14.01,2013-02-10 03:02:00,
2013-02-09 19:07:00,26.2,23.2,28.32,WSW,248,0.0,0.0,88,0.00,,---,0.00,VWS V14.01,2013-02-10 03:07:00,
2013-02-09 19:12:00,26.1,23.3,28.32,North,0,0.0,0.0,89,0.00,,---,0.00,VWS V14.01,2013-02-10 03:12:00,
2013-02-09 19:17:00,25.9,22.8,28.32,WSW,248,0.0,0.0,88,0.00,,---,0.00,VWS V14.01,2013-02-10 03:17:00,
2013-02-09 19:22:00,25.9,22.8,28.32,WSW,248,0.0,0.0,88,0.00,,---,0.00,VWS V14.01,2013-02-10 03:22:00,
2013-02-09 19:27:00,25.9,23.1,28.32,WSW,248,0.0,0.0,89,0.00,,---,0.00,VWS V14.01,2013-02-10 03:27:00,
2013-02-09 19:32:00,25.7,22.9,28.32,WNW,292,0.0,0.0,89,0.00,,---,0.00,VWS V14.01,2013-02-10 03:32:00,
2013-02-09 19:37:00,25.9,23.1,28.32,WSW,248,0.0,0.0,89,0.00,,---,0.00,VWS V14.01,2013-02-10 03:37:00,
2013-02-09 19:42:00,26.1,23.5,28.32,ENE,68,0.0,0.9,90,0.00,,---,0.00,VWS V14.01,2013-02-10 03:42:00,
2013-02-09 19:47:00,26.1,23.5,28.32,WSW,248,0.0,0.0,90,0.00,,---,0.00,VWS V14.01,2013-02-10 03:47:00,
2013-02-09 19:53:00,25.9,23.4,28.32,NNE,22,0.0,0.0,90,0.00,,---,0.00,VWS V14.01,2013-02-10 03:53:00,
2013-02-09 19:58:00,25.7,23.2,28.32,WSW,248,0.0,0.0,90,0.00,,---,0.00,VWS V14.01,2013-02-10 03:58:00,
2013-02-09 20:03:00,25.5,23.0,28.35,West,270,0.0,0.0,90,0.00,,---,0.00,VWS V14.01,2013-02-10 04:03:00,
2013-02-09 20:08:00,25.7,23.2,28.35,NNW,338,0.0,0.9,90,0.00,,---,0.00,VWS V14.01,2013-02-10 04:08:00,
2013-02-09 20:13:00,26.1,23.8,28.35,SW,225,0.0,0.0,91,0.00,,---,0.00,VWS V14.01,2013-02-10 04:13:00,
2013-02-09 20:18:00,26.1,24.1,28.35,NNW,338,0.0,0.0,92,0.00,,---,0.00,VWS V14.01,2013-02-10 04:18:00,
2013-02-09 20:23:00,25.9,23.6,28.35,WSW,248,0.0,0.0,91,0.00,,---,0.00,VWS V14.01,2013-02-10 04:23:00,
2013-02-09 20:28:00,25.7,23.7,28.35,NNW,338,0.0,0.0,92,0.00,,---,0.00,VWS V14.01,2013-02-10 04:28:00,
2013-02-09 20:33:00,25.7,23.4,28.35,West,270,0.0,0.0,91,0.00,,---,0.00,VWS V14.01,2013-02-10 04:33:00,
2013-02-09 20:38:00,25.7,23.4,28.35,WSW,248,0.0,0.0,91,0.00,,---,0.00,VWS V14.01,2013-02-10 04:38:00,
2013-02-09 20:43:00,25.9,23.6,28.35,NE,45,0.0,0.0,91,0.00,,---,0.00,VWS V14.01,2013-02-10 04:43:00,
2013-02-09 20:48:00,25.7,23.4,28.35,SW,225,0.0,0.0,91,0.00,,---,0.00,VWS V14.01,2013-02-10 04:48:00,
2013-02-09 20:53:00,25.7,23.4,28.35,SW,225,0.0,0.0,91,0.00,,---,0.00,VWS V14.01,2013-02-10 04:53:00,
2013-02-09 20:58:00,25.3,22.8,28.35,SW,225,0.0,0.0,90,0.00,,---,0.00,VWS V14.01,2013-02-10 04:58:00,
2013-02-09 21:00:00,25.3,22.8,28.35,SW,225,0.0,0.0,90,0.00,,---,0.00,VWS V14.01,2013-02-10 05:00:00,
2013-02-09 21:05:00,25.2,22.6,28.35,SW,225,0.0,0.0,90,0.00,,---,0.00,VWS V14.01,2013-02-10 05:05:00,
2013-02-09 21:10:00,25.0,22.5,28.35,SW,225,0.0,0.0,90,0.00,,---,0.00,VWS V14.01,2013-02-10 05:10:00,
2013-02-09 21:15:00,24.6,22.1,28.35,SW,225,0.0,0.0,90,0.00,,---,0.00,VWS V14.01,2013-02-10 05:15:00,
2013-02-09 21:20:00,24.8,22.3,28.35,SW,225,0.0,0.0,90,0.00,,---,0.00,VWS V14.01,2013-02-10 05:20:00,
2013-02-09 21:25:00,24.6,22.1,28.35,SW,225,0.0,0.0,90,0.00,,---,0.00,VWS V14.01,2013-02-10 05:25:00,
2013-02-09 21:30:00,25.0,22.5,28.35,ENE,68,0.0,0.0,90,0.00,,---,0.00,VWS V14.01,2013-02-10 05:30:00,
2013-02-09 21:35:00,24.4,21.9,28.35,ENE,68,0.0,0.0,90,0.00,,---,0.00,VWS V14.01,2013-02-10 05:35:00,
2013-02-09 21:40:00,24.4,21.9,28.35,ENE,68,0.0,0.0,90,0.00,,---,0.00,VWS V14.01,2013-02-10 05:40:00,
2013-02-09 21:45:00,24.4,21.9,28.35,ENE,68,0.0,0.0,90,0.00,,---,0.00,VWS V14.01,2013-02-10 05:45:00,
2013-02-09 21:50:00,24.3,21.8,28.35,ENE,68,0.0,0.0,90,0.00,,---,0.00,VWS V14.01,2013-02-10 05:50:00,
2013-02-09 21:55:00,24.4,21.9,28.35,WSW,248,0.0,0.0,90,0.00,,---,0.00,VWS V14.01,2013-02-10 05:55:00,
2013-02-09 22:00:00,24.3,22.0,28.35,WSW,248,0.0,0.0,91,0.00,,---,0.00,VWS V14.01,2013-02-10 06:00:00,
2013-02-09 22:05:00,24.4,22.2,28.35,SSW,202,0.0,0.0,91,0.00,,---,0.00,VWS V14.01,2013-02-10 06:05:00,
2013-02-09 22:10:00,24.3,22.0,28.35,WSW,248,0.0,0.0,91,0.00,,---,0.00,VWS V14.01,2013-02-10 06:10:00,
2013-02-09 22:15:00,24.1,21.8,28.35,WSW,248,0.0,0.0,91,0.00,,---,0.00,VWS V14.01,2013-02-10 06:15:00,
2013-02-09 22:20:00,24.1,21.6,28.35,WSW,248,0.0,0.0,90,0.00,,---,0.00,VWS V14.01,2013-02-10 06:20:00,
2013-02-09 22:25:00,23.9,21.4,28.35,WSW,248,0.0,0.0,90,0.00,,---,0.00,VWS V14.01,2013-02-10 06:25:00,
2013-02-09 22:30:00,24.3,21.8,28.35,WSW,248,0.0,0.0,90,0.00,,---,0.00,VWS V14.01,2013-02-10 06:30:00,
2013-02-09 22:35:00,23.9,21.4,28.35,WSW,248,0.0,0.0,90,0.00,,---,0.00,VWS V14.01,2013-02-10 06:35:00,
2013-02-09 22:40:00,24.1,21.6,28.35,WSW,248,0.0,0.0,90,0.00,,---,0.00,VWS V14.01,2013-02-10 06:40:00,
2013-02-09 22:45:00,24.1,21.8,28.38,WSW,248,0.0,0.0,91,0.00,,---,0.00,VWS V14.01,2013-02-10 06:45:00,
2013-02-09 22:50:00,23.9,21.4,28.38,SSW,202,0.0,0.0,90,0.00,,---,0.00,VWS V14.01,2013-02-10 06:50:00,
2013-02-09 22:55:00,23.9,21.4,28.38,SW,225,0.0,0.0,90,0.00,,---,0.00,VWS V14.01,2013-02-10 06:55:00,
2013-02-09 23:00:00,23.7,21.2,28.38,SW,225,0.0,0.0,90,0.00,,---,0.00,VWS V14.01,2013-02-10 07:00:00,
2013-02-09 23:05:00,23.7,21.2,28.38,SW,225,0.0,0.0,90,0.00,,---,0.00,VWS V14.01,2013-02-10 07:05:00,
2013-02-09 23:10:00,24.1,21.8,28.38,SW,225,0.0,0.0,91,0.00,,---,0.00,VWS V14.01,2013-02-10 07:10:00,
2013-02-09 23:15:00,23.5,21.0,28.38,SW,225,0.0,0.0,90,0.00,,---,0.00,VWS V14.01,2013-02-10 07:15:00,
2013-02-09 23:20:00,23.5,21.0,28.38,SW,225,0.0,0.0,90,0.00,,---,0.00,VWS V14.01,2013-02-10 07:20:00,
2013-02-09 23:25:00,23.5,21.0,28.38,SW,225,0.0,0.0,90,0.00,,---,0.00,VWS V14.01,2013-02-10 07:25:00,
2013-02-09 23:30:00,23.5,21.0,28.38,SW,225,0.0,0.0,90,0.00,,---,0.00,VWS V14.01,2013-02-10 07:30:00,
2013-02-09 23:35:00,23.2,20.7,28.38,SW,225,0.0,0.0,90,0.00,,---,0.00,VWS V14.01,2013-02-10 07:35:00,
2013-02-09 23:40:00,23.4,20.9,28.38,SW,225,0.0,0.0,90,0.00,,---,0.00,VWS V14.01,2013-02-10 07:40:00,
2013-02-09 23:45:00,23.0,20.5,28.38,SW,225,0.0,0.0,90,0.00,,---,0.00,VWS V14.01,2013-02-10 07:45:00,
2013-02-09 23:50:00,23.2,20.7,28.38,SW,225,0.0,0.0,90,0.00,,---,0.00,VWS V14.01,2013-02-10 07:50:00,
2013-02-09 23:55:00,22.8,20.3,28.38,SW,225,0.0,0.0,90,0.00,,---,0.00,VWS V14.01,2013-02-10 07:55:00,